createdAt,value
2023-03-19T00:02:30.971Z,14.60
2023-03-19T00:05:05.492Z,15.10
2023-03-19T00:07:39.481Z,14.20
2023-03-19T00:10:13.996Z,14.90
2023-03-19T00:12:47.731Z,14.90
2023-03-19T00:15:21.489Z,15.30
2023-03-19T00:17:56.921Z,15.10
2023-03-19T00:20:30.886Z,15.60
2023-03-19T00:23:04.393Z,14.50
2023-03-19T00:25:38.048Z,14.20
2023-03-19T00:28:12.393Z,14.00
2023-03-19T00:30:47.088Z,14.30
2023-03-19T00:33:20.739Z,14.30
2023-03-19T00:35:55.372Z,16.00
2023-03-19T00:38:29.559Z,15.00
2023-03-19T00:41:02.855Z,13.60
2023-03-19T00:43:38.001Z,14.90
2023-03-19T00:46:11.763Z,15.60
2023-03-19T00:48:45.501Z,14.50
2023-03-19T00:51:19.264Z,14.40
2023-03-19T00:53:54.379Z,15.20
2023-03-19T00:56:28.003Z,15.30
2023-03-19T00:59:01.734Z,15.20
2023-03-19T01:01:35.394Z,13.90
2023-03-19T01:04:09.746Z,15.10
2023-03-19T01:06:43.619Z,15.20
2023-03-19T01:09:17.556Z,15.50
2023-03-19T01:11:51.669Z,15.00
2023-03-19T01:14:25.379Z,14.90
2023-03-19T01:16:59.260Z,15.50
2023-03-19T01:19:33.016Z,15.00
2023-03-19T01:22:06.690Z,15.10
2023-03-19T01:24:41.273Z,16.20
2023-03-19T01:27:15.292Z,15.10
2023-03-19T01:29:48.917Z,15.00
2023-03-19T01:32:29.893Z,14.80
2023-03-19T01:35:42.997Z,15.50
2023-03-19T01:38:16.903Z,15.90
2023-03-19T01:40:52.566Z,15.90
2023-03-19T01:43:28.341Z,15.90
2023-03-19T01:46:25.293Z,14.00
2023-03-19T01:49:20.381Z,14.50
2023-03-19T01:52:01.309Z,15.70
2023-03-19T01:54:39.809Z,15.80
2023-03-19T01:57:24.613Z,15.60
2023-03-19T02:00:20.676Z,14.50
2023-03-19T02:03:01.177Z,16.40
2023-03-19T02:05:59.651Z,14.60
2023-03-19T02:08:34.194Z,13.90
2023-03-19T02:11:09.069Z,15.50
2023-03-19T02:13:43.095Z,14.80
2023-03-19T02:16:17.175Z,16.30
2023-03-19T02:18:53.829Z,15.50
2023-03-19T02:21:27.630Z,15.90
2023-03-19T02:24:09.644Z,16.30
2023-03-19T02:26:53.137Z,16.20
2023-03-19T02:29:26.866Z,14.70
2023-03-19T02:32:00.914Z,14.00
2023-03-19T02:34:44.618Z,15.60
2023-03-19T02:37:24.469Z,14.70
2023-03-19T02:40:04.867Z,14.60
2023-03-19T02:42:38.766Z,14.50
2023-03-19T02:45:13.793Z,15.10
2023-03-19T02:47:47.195Z,15.30
2023-03-19T02:50:21.047Z,14.20
2023-03-19T02:52:55.932Z,13.30
2023-03-19T02:55:29.385Z,13.90
2023-03-19T02:58:03.611Z,15.90
2023-03-19T03:00:37.739Z,15.30
2023-03-19T03:03:12.115Z,14.30
2023-03-19T03:05:46.595Z,14.90
2023-03-19T03:08:20.977Z,14.80
2023-03-19T03:10:54.807Z,13.90
2023-03-19T03:13:28.762Z,14.10
2023-03-19T03:16:03.614Z,14.00
2023-03-19T03:18:38.010Z,14.50
2023-03-19T03:21:12.061Z,15.40
2023-03-19T03:23:45.649Z,15.10
2023-03-19T03:26:19.334Z,15.90
2023-03-19T03:28:53.268Z,14.00
2023-03-19T03:31:27.497Z,15.20
2023-03-19T03:34:01.153Z,13.70
2023-03-19T03:36:35.233Z,14.40
2023-03-19T03:39:09.543Z,13.80
2023-03-19T03:41:43.043Z,13.80
2023-03-19T03:44:16.879Z,14.00
2023-03-19T03:46:51.296Z,12.50
2023-03-19T03:49:26.030Z,14.50
2023-03-19T03:52:00.001Z,14.80
2023-03-19T03:54:33.997Z,14.00
2023-03-19T03:57:08.413Z,13.90
2023-03-19T03:59:42.956Z,14.00
2023-03-19T04:02:17.122Z,15.10
2023-03-19T04:04:51.038Z,14.10
2023-03-19T04:07:24.999Z,14.00
2023-03-19T04:10:02.595Z,14.00
2023-03-19T04:12:38.104Z,13.00
2023-03-19T04:15:14.807Z,14.60
2023-03-19T04:17:50.951Z,14.60
2023-03-19T04:20:26.015Z,13.60
2023-03-19T04:22:59.632Z,13.40
2023-03-19T04:25:33.155Z,13.60
2023-03-19T04:28:07.488Z,13.70
2023-03-19T04:30:42.089Z,15.20
2023-03-19T04:33:16.215Z,14.10
2023-03-19T04:35:50.057Z,15.10
2023-03-19T04:38:23.870Z,13.40
2023-03-19T04:40:57.876Z,15.10
2023-03-19T04:43:31.385Z,13.90
2023-03-19T04:46:08.368Z,13.80
2023-03-19T04:48:42.520Z,13.50
2023-03-19T04:51:17.202Z,15.20
2023-03-19T04:53:51.233Z,13.20
2023-03-19T04:56:25.126Z,12.40
2023-03-19T04:58:58.748Z,14.70
2023-03-19T05:01:33.349Z,13.20
2023-03-19T05:04:15.425Z,14.40
2023-03-19T05:06:49.016Z,14.70
2023-03-19T05:09:22.676Z,14.50
2023-03-19T05:11:56.894Z,13.40
2023-03-19T05:14:30.779Z,14.20
2023-03-19T05:17:33.898Z,13.50
2023-03-19T05:20:19.955Z,14.10
2023-03-19T05:22:59.033Z,13.90
2023-03-19T05:25:43.178Z,13.80
2023-03-19T05:28:18.741Z,13.80
2023-03-19T05:30:53.080Z,14.40
2023-03-19T05:33:32.627Z,14.20
2023-03-19T05:36:08.199Z,14.10
2023-03-19T05:38:56.598Z,11.80
2023-03-19T05:41:34.190Z,14.90
2023-03-19T05:44:10.797Z,13.50
2023-03-19T05:46:51.133Z,13.60
2023-03-19T05:49:25.674Z,14.40
2023-03-19T05:51:59.062Z,15.60
2023-03-19T05:54:32.738Z,14.70
2023-03-19T05:57:14.899Z,14.50
2023-03-19T06:02:42.283Z,14.20
2023-03-19T06:05:36.303Z,16.60
2023-03-19T06:08:24.896Z,17.30
2023-03-19T06:11:05.659Z,15.80
2023-03-19T06:13:39.890Z,15.90
2023-03-19T06:16:14.979Z,15.50
2023-03-19T06:18:54.991Z,16.90
2023-03-19T06:21:30.794Z,18.40
2023-03-19T06:24:08.308Z,18.10
2023-03-19T06:26:42.874Z,17.30
2023-03-19T06:29:21.762Z,17.70
2023-03-19T06:31:59.160Z,16.10
2023-03-19T06:34:44.788Z,17.30
2023-03-19T06:37:19.272Z,18.20
2023-03-19T06:39:55.004Z,17.10
2023-03-19T06:42:28.936Z,18.30
2023-03-19T06:45:02.843Z,19.00
2023-03-19T06:47:36.749Z,19.60
2023-03-19T06:50:12.685Z,19.00
2023-03-19T06:52:47.001Z,17.70
2023-03-19T06:55:21.326Z,18.80
2023-03-19T06:57:55.249Z,19.30
2023-03-19T07:00:29.602Z,18.80
2023-03-19T07:03:02.929Z,18.80
2023-03-19T07:05:36.763Z,19.40
2023-03-19T07:08:12.292Z,20.20
2023-03-19T07:10:46.069Z,19.50
2023-03-19T07:13:19.972Z,19.10
2023-03-19T07:15:53.584Z,19.90
2023-03-19T07:18:27.485Z,18.40
2023-03-19T07:21:00.879Z,19.50
2023-03-19T07:23:34.952Z,18.50
2023-03-19T07:26:08.999Z,18.90
2023-03-19T07:28:42.594Z,19.50
2023-03-19T07:31:17.329Z,18.70
2023-03-19T07:33:50.917Z,19.20
2023-03-19T07:36:24.900Z,20.10
2023-03-19T07:38:59.422Z,19.90
2023-03-19T07:41:33.686Z,20.00
2023-03-19T07:44:07.382Z,20.60
2023-03-19T07:46:41.204Z,20.10
2023-03-19T07:49:14.677Z,19.30
2023-03-19T07:51:48.661Z,18.90
2023-03-19T07:54:23.878Z,19.30
2023-03-19T07:56:57.218Z,19.80
2023-03-19T07:59:31.100Z,18.70
2023-03-19T08:02:04.765Z,18.80
2023-03-19T08:04:38.665Z,19.20
2023-03-19T08:07:13.122Z,19.10
2023-03-19T08:09:47.171Z,18.40
2023-03-19T08:12:20.778Z,17.40
2023-03-19T08:14:55.007Z,17.50
2023-03-19T08:17:28.918Z,17.20
2023-03-19T08:20:02.614Z,16.50
2023-03-19T08:22:36.389Z,15.60
2023-03-19T08:25:12.353Z,16.40
2023-03-19T08:27:45.984Z,16.00
2023-03-19T08:30:20.365Z,15.70
2023-03-19T08:32:54.459Z,14.30
2023-03-19T08:35:28.550Z,14.70
2023-03-19T08:38:02.589Z,14.40
2023-03-19T08:40:37.142Z,14.90
2023-03-19T08:43:10.990Z,13.60
2023-03-19T08:45:44.582Z,13.60
2023-03-19T08:48:18.546Z,12.70
2023-03-19T08:50:56.973Z,12.00
2023-03-19T08:53:31.484Z,12.30
2023-03-19T08:56:06.788Z,12.50
2023-03-19T08:58:42.491Z,13.10
2023-03-19T09:01:17.093Z,12.20
2023-03-19T09:03:51.059Z,12.70
2023-03-19T09:06:25.726Z,12.00
2023-03-19T09:08:59.321Z,11.70
2023-03-19T09:11:33.124Z,13.00
2023-03-19T09:14:07.543Z,12.60
2023-03-19T09:16:41.364Z,12.80
2023-03-19T09:19:14.813Z,12.30
2023-03-19T09:21:48.822Z,12.10
2023-03-19T09:24:22.985Z,12.00
2023-03-19T09:26:56.997Z,12.40
2023-03-19T09:29:30.648Z,12.50
2023-03-19T09:32:04.462Z,11.60
2023-03-19T09:34:38.118Z,12.30
2023-03-19T09:37:12.286Z,12.30
2023-03-19T09:39:46.804Z,12.60
2023-03-19T09:42:43.377Z,11.50
2023-03-19T09:45:18.832Z,12.30
2023-03-19T09:47:57.319Z,13.00
2023-03-19T09:50:34.990Z,12.40
2023-03-19T09:53:16.687Z,11.80
2023-03-19T09:55:53.141Z,11.10
2023-03-19T09:58:33.307Z,12.40
2023-03-19T10:01:08.111Z,11.90
2023-03-19T10:03:58.462Z,12.60
2023-03-19T10:06:36.111Z,11.70
2023-03-19T10:09:37.190Z,12.40
2023-03-19T10:12:25.448Z,11.40
2023-03-19T10:15:24.010Z,10.40
2023-03-19T10:18:05.048Z,11.30
2023-03-19T10:20:47.449Z,11.10
2023-03-19T10:23:39.074Z,11.00
2023-03-19T10:26:17.968Z,10.20
2023-03-19T10:28:59.981Z,11.50
2023-03-19T10:31:45.603Z,10.90
2023-03-19T10:34:36.680Z,10.50
2023-03-19T10:37:20.905Z,10.90
2023-03-19T10:39:58.010Z,10.70
2023-03-19T10:42:50.183Z,10.00
2023-03-19T10:45:30.649Z,9.80
2023-03-19T10:48:06.019Z,9.90
2023-03-19T10:50:48.202Z,9.30
2023-03-19T10:53:35.297Z,9.80
2023-03-19T10:56:19.229Z,10.10
2023-03-19T10:59:03.419Z,10.10
2023-03-19T11:01:40.919Z,10.80
2023-03-19T11:04:19.514Z,10.70
2023-03-19T11:06:55.029Z,10.80
2023-03-19T11:09:36.283Z,11.10
2023-03-19T11:12:23.451Z,10.20
2023-03-19T11:14:58.981Z,10.10
2023-03-19T11:17:42.052Z,9.80
2023-03-19T11:20:29.003Z,10.20
2023-03-19T11:23:04.611Z,9.90
2023-03-19T11:25:41.157Z,9.80
2023-03-19T11:28:20.480Z,10.30
2023-03-19T11:31:04.148Z,9.30
2023-03-19T11:33:58.094Z,9.30
2023-03-19T11:36:36.019Z,9.40
2023-03-19T11:39:23.836Z,9.30
2023-03-19T11:42:27.235Z,9.50
2023-03-19T11:45:12.033Z,9.70
2023-03-19T11:47:54.089Z,10.00
2023-03-19T11:50:35.413Z,9.40
2023-03-19T11:53:22.860Z,9.40
2023-03-19T11:56:04.523Z,9.10
2023-03-19T11:59:05.831Z,8.90
2023-03-19T12:01:58.206Z,8.90
2023-03-19T12:04:51.389Z,10.10
2023-03-19T12:07:33.745Z,10.00
2023-03-19T12:10:28.273Z,9.60
2023-03-19T12:13:18.246Z,9.70
2023-03-19T12:16:03.792Z,9.80
2023-03-19T12:19:00.018Z,8.80
2023-03-19T12:21:43.059Z,8.90
2023-03-19T12:24:28.859Z,9.80
2023-03-19T12:27:22.206Z,9.40
2023-03-19T12:30:02.378Z,9.20
2023-03-19T12:32:56.016Z,8.80
2023-03-19T12:35:36.001Z,8.40
2023-03-19T12:38:15.765Z,8.80
2023-03-19T12:40:54.192Z,9.10
2023-03-19T12:43:34.211Z,9.00
2023-03-19T12:46:14.243Z,9.70
2023-03-19T12:48:54.095Z,9.20
2023-03-19T12:51:30.596Z,9.40
2023-03-19T12:54:08.095Z,9.30
2023-03-19T12:56:48.705Z,9.70
2023-03-19T12:59:31.306Z,9.30
2023-03-19T13:02:14.064Z,10.40
2023-03-19T13:04:55.133Z,9.70
2023-03-19T13:07:35.984Z,9.40
2023-03-19T13:10:15.833Z,9.20
2023-03-19T13:12:51.050Z,8.90
2023-03-19T13:15:30.606Z,9.10
2023-03-19T13:18:17.035Z,9.70
2023-03-19T13:21:06.342Z,9.00
2023-03-19T13:23:44.428Z,9.50
2023-03-19T13:26:19.837Z,13.70
2023-03-19T13:29:10.633Z,9.50
2023-03-19T13:31:44.691Z,9.00
2023-03-19T13:34:29.441Z,8.80
2023-03-19T13:37:14.072Z,8.80
2023-03-19T13:39:50.001Z,9.00
2023-03-19T13:42:39.926Z,9.50
2023-03-19T13:45:36.289Z,8.50
2023-03-19T13:48:40.547Z,9.30
2023-03-19T13:51:31.036Z,9.10
2023-03-19T13:54:18.260Z,8.80
2023-03-19T13:57:19.969Z,8.90
2023-03-19T13:59:54.471Z,8.80
2023-03-19T14:02:51.025Z,8.80
2023-03-19T14:05:26.367Z,8.60
2023-03-19T14:07:59.918Z,9.20
2023-03-19T14:10:35.110Z,9.10
2023-03-19T14:13:20.515Z,8.60
2023-03-19T14:16:02.297Z,9.10
2023-03-19T14:18:40.598Z,8.60
2023-03-19T14:21:22.132Z,9.10
2023-03-19T14:24:52.229Z,8.90
2023-03-19T14:27:20.250Z,9.40
2023-03-19T14:29:57.962Z,9.90
2023-03-19T14:32:41.935Z,9.30
2023-03-19T14:35:21.099Z,8.60
2023-03-19T14:37:58.460Z,8.80
2023-03-19T14:40:42.476Z,9.20
2023-03-19T14:43:29.373Z,8.30
2023-03-19T14:46:05.145Z,8.80
2023-03-19T14:49:11.622Z,9.20
2023-03-19T14:52:01.003Z,9.40
2023-03-19T14:54:43.091Z,9.30
2023-03-19T14:57:22.261Z,9.00
2023-03-19T15:02:43.284Z,9.20
2023-03-19T15:05:25.083Z,8.50
2023-03-19T15:08:04.687Z,8.80
2023-03-19T15:10:50.233Z,8.40
2023-03-19T15:13:37.906Z,9.00
2023-03-19T15:16:30.605Z,9.10
2023-03-19T15:19:10.436Z,8.60
2023-03-19T15:21:44.789Z,8.80
2023-03-19T15:24:20.818Z,8.60
2023-03-19T15:26:56.198Z,9.40
2023-03-19T15:29:38.507Z,8.30
2023-03-19T15:32:49.700Z,9.20
2023-03-19T15:35:35.402Z,9.50
2023-03-19T15:38:15.283Z,8.80
2023-03-19T15:40:51.964Z,9.00
2023-03-19T15:43:30.161Z,8.80
2023-03-19T15:48:45.364Z,8.80
2023-03-19T15:51:21.689Z,9.80
2023-03-19T15:54:01.285Z,9.90
2023-03-19T15:56:37.723Z,9.20
2023-03-19T15:59:15.189Z,9.50
2023-03-19T16:01:53.481Z,9.20
2023-03-19T16:04:32.067Z,9.70
2023-03-19T16:07:24.355Z,10.50
2023-03-19T16:10:00.769Z,9.20
2023-03-19T16:12:42.520Z,10.10
2023-03-19T16:15:35.650Z,10.20
2023-03-19T16:18:33.484Z,9.50
2023-03-19T16:21:22.226Z,10.50
2023-03-19T16:24:02.142Z,9.80
2023-03-19T16:26:44.705Z,10.20
2023-03-19T16:29:30.425Z,13.00
2023-03-19T16:32:20.385Z,11.40
2023-03-19T16:34:59.897Z,11.50
2023-03-19T16:37:46.095Z,17.00
2023-03-19T16:40:49.864Z,15.50
2023-03-19T16:43:39.383Z,12.90
2023-03-19T16:46:17.026Z,11.90
2023-03-19T16:48:53.890Z,10.60
2023-03-19T16:51:32.755Z,12.50
2023-03-19T16:54:13.176Z,11.90
2023-03-19T16:56:51.018Z,10.70
2023-03-19T16:59:34.439Z,10.20
2023-03-19T17:02:19.972Z,10.50
2023-03-19T17:05:00.651Z,11.20
2023-03-19T17:07:43.309Z,11.70
2023-03-19T17:10:23.393Z,10.90
2023-03-19T17:13:00.631Z,10.40
2023-03-19T17:15:44.951Z,10.20
2023-03-19T17:18:27.074Z,10.00
2023-03-19T17:21:09.521Z,10.00
2023-03-19T17:23:46.269Z,10.30
2023-03-19T17:26:32.997Z,9.60
2023-03-19T17:29:11.110Z,10.40
2023-03-19T17:31:48.255Z,10.60
2023-03-19T17:34:34.068Z,10.80
2023-03-19T17:37:19.956Z,10.50
2023-03-19T17:40:15.500Z,10.30
2023-03-19T17:42:54.602Z,10.00
2023-03-19T17:48:09.798Z,11.20
2023-03-19T17:50:49.603Z,11.20
2023-03-19T17:53:27.758Z,10.50
2023-03-19T17:56:07.842Z,11.00
2023-03-19T17:58:47.175Z,11.50
2023-03-19T18:01:30.978Z,11.30
2023-03-19T18:04:14.696Z,12.20
2023-03-19T18:06:56.343Z,12.70
2023-03-19T18:09:35.105Z,13.00
2023-03-19T18:12:12.873Z,11.70
2023-03-19T18:14:52.521Z,12.10
2023-03-19T18:17:40.505Z,12.60
2023-03-19T18:20:21.747Z,12.30
2023-03-19T18:23:01.952Z,12.10
2023-03-19T18:25:41.159Z,12.30
2023-03-19T18:28:17.520Z,12.00
2023-03-19T18:30:56.086Z,12.60
2023-03-19T18:36:14.085Z,12.30
2023-03-19T18:38:55.516Z,11.90
2023-03-19T18:41:41.000Z,13.10
2023-03-19T18:44:19.699Z,13.20
2023-03-19T18:46:56.428Z,12.90
2023-03-19T18:49:34.056Z,12.40
2023-03-19T18:52:13.070Z,12.70
2023-03-19T18:54:50.808Z,12.60
2023-03-19T18:57:36.752Z,12.20
2023-03-19T19:00:25.948Z,13.70
2023-03-19T19:03:05.420Z,13.40
2023-03-19T19:05:42.354Z,13.40
2023-03-19T19:08:27.867Z,13.80
2023-03-19T19:11:06.602Z,13.50
2023-03-19T19:13:55.453Z,13.50
2023-03-19T19:16:42.663Z,15.40
2023-03-19T19:19:23.041Z,15.50
2023-03-19T19:22:00.799Z,16.20
2023-03-19T19:24:36.657Z,15.20
2023-03-19T19:27:25.146Z,16.00
2023-03-19T19:30:01.277Z,16.20
2023-03-19T19:32:41.742Z,15.20
2023-03-19T19:35:27.599Z,16.00
2023-03-19T19:38:05.202Z,14.70
2023-03-19T19:43:24.948Z,14.70
2023-03-19T19:46:04.721Z,16.10
2023-03-19T19:48:46.771Z,16.40
2023-03-19T19:51:26.286Z,17.50
2023-03-19T19:54:03.906Z,18.90
2023-03-19T19:56:43.484Z,19.30
2023-03-19T19:59:20.877Z,18.70
2023-03-19T20:01:56.803Z,20.20
2023-03-19T20:04:33.656Z,20.00
2023-03-19T20:07:10.913Z,18.70
2023-03-19T20:09:47.717Z,19.30
2023-03-19T20:12:39.969Z,18.80
2023-03-19T20:15:34.239Z,18.60
2023-03-19T20:18:18.708Z,18.30
2023-03-19T20:21:02.451Z,19.10
2023-03-19T20:23:40.388Z,18.90
2023-03-19T20:26:20.319Z,20.10
2023-03-19T20:28:57.388Z,18.30
2023-03-19T20:31:35.398Z,18.30
2023-03-19T20:34:25.527Z,19.40
2023-03-19T20:37:14.707Z,18.60
2023-03-19T20:39:54.220Z,18.60
2023-03-19T20:42:36.593Z,19.50
2023-03-19T20:45:21.504Z,19.60
2023-03-19T20:48:00.904Z,18.90
2023-03-19T20:50:48.648Z,19.30
2023-03-19T20:53:25.915Z,18.40
2023-03-19T20:56:04.944Z,19.40
2023-03-19T20:58:46.273Z,19.00
2023-03-19T21:01:23.784Z,19.30
2023-03-19T21:04:01.696Z,18.10
2023-03-19T21:06:52.070Z,19.20
2023-03-19T21:09:30.707Z,18.30
2023-03-19T21:12:18.223Z,19.90
2023-03-19T21:14:58.873Z,19.70
2023-03-19T21:17:34.836Z,19.60
2023-03-19T21:20:18.382Z,19.20
2023-03-19T21:22:56.613Z,19.30
2023-03-19T21:25:39.648Z,21.50
2023-03-19T21:28:22.101Z,21.20
2023-03-19T21:31:02.484Z,22.30
2023-03-19T21:33:38.418Z,20.90
2023-03-19T21:36:15.814Z,22.20
2023-03-19T21:38:51.287Z,22.70
2023-03-19T21:41:31.067Z,22.70
2023-03-19T21:44:07.981Z,24.10
2023-03-19T21:46:43.152Z,23.50
2023-03-19T21:49:18.247Z,23.00
2023-03-19T21:51:52.672Z,22.90
2023-03-19T21:54:26.405Z,22.60
2023-03-19T21:56:59.994Z,23.40
2023-03-19T21:59:35.634Z,22.00
2023-03-19T22:02:37.242Z,24.10
2023-03-19T22:05:19.070Z,23.80
2023-03-19T22:07:53.163Z,24.20
2023-03-19T22:10:30.497Z,23.60
2023-03-19T22:13:04.865Z,24.40
2023-03-19T22:15:40.077Z,24.20
2023-03-19T22:18:19.124Z,24.80
2023-03-19T22:20:53.302Z,24.50
2023-03-19T22:23:26.641Z,24.50
2023-03-19T22:26:00.072Z,24.80
2023-03-19T22:28:36.206Z,25.80
2023-03-19T22:31:10.548Z,25.40
2023-03-19T22:33:44.301Z,24.60
2023-03-19T22:36:18.142Z,24.70
2023-03-19T22:38:52.162Z,24.40
2023-03-19T22:41:32.332Z,24.80
2023-03-19T22:44:08.527Z,23.90
2023-03-19T22:46:42.231Z,24.70
2023-03-19T22:49:19.049Z,23.80
2023-03-19T22:51:52.481Z,25.40
2023-03-19T22:54:26.387Z,25.20
2023-03-19T22:57:00.106Z,24.90
2023-03-19T22:59:33.838Z,24.80
2023-03-19T23:02:07.704Z,25.80
2023-03-19T23:04:42.167Z,25.60
2023-03-19T23:07:16.251Z,25.60
2023-03-19T23:09:50.101Z,25.60
2023-03-19T23:12:23.710Z,25.90
2023-03-19T23:14:57.389Z,25.50
2023-03-19T23:17:31.257Z,23.90
2023-03-19T23:20:13.166Z,23.20
2023-03-19T23:22:47.254Z,24.80
2023-03-19T23:25:29.388Z,23.60
2023-03-19T23:28:04.309Z,27.40
2023-03-19T23:30:41.762Z,25.10
2023-03-19T23:33:17.500Z,26.00
2023-03-19T23:35:51.095Z,26.30
2023-03-19T23:38:24.928Z,26.40
2023-03-19T23:40:58.747Z,26.80
2023-03-19T23:43:33.802Z,26.20
2023-03-19T23:46:11.429Z,25.90
2023-03-19T23:48:45.220Z,27.80
2023-03-19T23:51:19.361Z,28.20
2023-03-19T23:53:52.943Z,26.90
2023-03-19T23:56:28.105Z,28.80
2023-03-19T23:59:01.575Z,27.40
